sensor_id;sensor_type;location;lat;lon;timestamp;temperature;humidity
35127;DHT22;21300;52.006;5.798;2023-08-06T00:00:24;17.30;95.10
35127;DHT22;21300;52.006;5.798;2023-08-06T00:02:50;17.30;95.10
35127;DHT22;21300;52.006;5.798;2023-08-06T00:05:16;17.30;95.40
35127;DHT22;21300;52.006;5.798;2023-08-06T00:07:47;17.30;95.10
35127;DHT22;21300;52.006;5.798;2023-08-06T00:10:13;17.30;95.10
35127;DHT22;21300;52.006;5.798;2023-08-06T00:12:39;17.30;95.10
35127;DHT22;21300;52.006;5.798;2023-08-06T00:15:05;17.30;95.20
35127;DHT22;21300;52.006;5.798;2023-08-06T00:17:30;17.30;95.10
35127;DHT22;21300;52.006;5.798;2023-08-06T00:19:56;17.30;95.50
35127;DHT22;21300;52.006;5.798;2023-08-06T00:22:21;17.30;95.10
35127;DHT22;21300;52.006;5.798;2023-08-06T00:24:47;17.20;95.10
35127;DHT22;21300;52.006;5.798;2023-08-06T00:27:13;17.20;95.10
35127;DHT22;21300;52.006;5.798;2023-08-06T00:29:38;17.20;95.10
35127;DHT22;21300;52.006;5.798;2023-08-06T00:32:04;17.20;95.50
35127;DHT22;21300;52.006;5.798;2023-08-06T00:34:29;17.20;95.20
35127;DHT22;21300;52.006;5.798;2023-08-06T00:36:55;17.20;95.20
35127;DHT22;21300;52.006;5.798;2023-08-06T00:39:20;17.20;95.20
35127;DHT22;21300;52.006;5.798;2023-08-06T00:41:46;17.20;95.20
35127;DHT22;21300;52.006;5.798;2023-08-06T00:44:11;17.20;95.20
35127;DHT22;21300;52.006;5.798;2023-08-06T00:46:37;17.20;95.20
35127;DHT22;21300;52.006;5.798;2023-08-06T00:49:04;17.20;95.20
35127;DHT22;21300;52.006;5.798;2023-08-06T00:51:30;17.10;95.20
35127;DHT22;21300;52.006;5.798;2023-08-06T00:53:56;17.10;95.20
35127;DHT22;21300;52.006;5.798;2023-08-06T00:56:21;17.20;95.20
35127;DHT22;21300;52.006;5.798;2023-08-06T00:58:47;17.20;95.20
35127;DHT22;21300;52.006;5.798;2023-08-06T01:01:13;17.20;95.30
35127;DHT22;21300;52.006;5.798;2023-08-06T01:03:38;17.20;95.20
35127;DHT22;21300;52.006;5.798;2023-08-06T01:06:04;17.10;95.20
35127;DHT22;21300;52.006;5.798;2023-08-06T01:11:26;17.10;95.20
35127;DHT22;21300;52.006;5.798;2023-08-06T01:14:11;17.10;95.30
35127;DHT22;21300;52.006;5.798;2023-08-06T01:16:40;17.10;95.30
35127;DHT22;21300;52.006;5.798;2023-08-06T01:19:18;17.10;95.30
35127;DHT22;21300;52.006;5.798;2023-08-06T01:21:44;17.10;95.30
35127;DHT22;21300;52.006;5.798;2023-08-06T01:24:10;17.10;95.30
35127;DHT22;21300;52.006;5.798;2023-08-06T01:26:42;17.10;95.30
35127;DHT22;21300;52.006;5.798;2023-08-06T01:29:17;17.10;95.30
35127;DHT22;21300;52.006;5.798;2023-08-06T01:31:44;17.10;95.30
35127;DHT22;21300;52.006;5.798;2023-08-06T01:34:24;17.10;95.30
35127;DHT22;21300;52.006;5.798;2023-08-06T01:36:51;17.10;95.30
35127;DHT22;21300;52.006;5.798;2023-08-06T01:39:17;17.10;95.30
35127;DHT22;21300;52.006;5.798;2023-08-06T01:41:46;17.10;95.40
35127;DHT22;21300;52.006;5.798;2023-08-06T01:44:12;17.10;95.40
35127;DHT22;21300;52.006;5.798;2023-08-06T01:46:38;17.10;95.40
35127;DHT22;21300;52.006;5.798;2023-08-06T01:49:03;17.10;95.50
35127;DHT22;21300;52.006;5.798;2023-08-06T01:51:29;17.00;95.40
35127;DHT22;21300;52.006;5.798;2023-08-06T01:53:54;17.10;95.40
35127;DHT22;21300;52.006;5.798;2023-08-06T01:56:20;17.10;95.40
35127;DHT22;21300;52.006;5.798;2023-08-06T01:58:46;17.10;95.40
35127;DHT22;21300;52.006;5.798;2023-08-06T02:01:11;17.00;95.40
35127;DHT22;21300;52.006;5.798;2023-08-06T02:03:37;17.00;95.40
35127;DHT22;21300;52.006;5.798;2023-08-06T02:06:02;17.00;95.40
35127;DHT22;21300;52.006;5.798;2023-08-06T02:08:28;17.00;95.40
35127;DHT22;21300;52.006;5.798;2023-08-06T02:10:53;17.00;95.40
35127;DHT22;21300;52.006;5.798;2023-08-06T02:13:19;17.00;95.40
35127;DHT22;21300;52.006;5.798;2023-08-06T02:15:45;17.00;95.40
35127;DHT22;21300;52.006;5.798;2023-08-06T02:18:14;17.10;95.50
35127;DHT22;21300;52.006;5.798;2023-08-06T02:20:40;17.00;95.40
35127;DHT22;21300;52.006;5.798;2023-08-06T02:23:06;17.00;95.40
35127;DHT22;21300;52.006;5.798;2023-08-06T02:26:03;17.00;95.50
35127;DHT22;21300;52.006;5.798;2023-08-06T02:28:32;17.00;95.40
35127;DHT22;21300;52.006;5.798;2023-08-06T02:30:58;17.00;95.50
35127;DHT22;21300;52.006;5.798;2023-08-06T02:33:24;17.00;95.50
35127;DHT22;21300;52.006;5.798;2023-08-06T02:35:50;17.00;95.50
35127;DHT22;21300;52.006;5.798;2023-08-06T02:38:15;17.00;95.50
35127;DHT22;21300;52.006;5.798;2023-08-06T02:40:45;17.00;95.50
35127;DHT22;21300;52.006;5.798;2023-08-06T02:43:11;17.00;95.50
35127;DHT22;21300;52.006;5.798;2023-08-06T02:45:36;17.00;95.50
35127;DHT22;21300;52.006;5.798;2023-08-06T02:48:02;17.00;95.40
35127;DHT22;21300;52.006;5.798;2023-08-06T02:50:28;17.00;95.50
35127;DHT22;21300;52.006;5.798;2023-08-06T02:52:53;17.00;95.50
35127;DHT22;21300;52.006;5.798;2023-08-06T02:55:19;17.00;95.50
35127;DHT22;21300;52.006;5.798;2023-08-06T02:57:44;17.00;95.60
35127;DHT22;21300;52.006;5.798;2023-08-06T03:00:10;17.00;95.50
35127;DHT22;21300;52.006;5.798;2023-08-06T03:02:37;17.00;95.50
35127;DHT22;21300;52.006;5.798;2023-08-06T03:05:03;17.00;95.50
35127;DHT22;21300;52.006;5.798;2023-08-06T03:07:29;16.90;95.50
35127;DHT22;21300;52.006;5.798;2023-08-06T03:09:55;17.00;95.50
35127;DHT22;21300;52.006;5.798;2023-08-06T03:12:20;16.90;95.50
35127;DHT22;21300;52.006;5.798;2023-08-06T03:14:46;16.90;95.50
35127;DHT22;21300;52.006;5.798;2023-08-06T03:17:12;16.90;95.50
35127;DHT22;21300;52.006;5.798;2023-08-06T03:19:38;16.90;95.40
35127;DHT22;21300;52.006;5.798;2023-08-06T03:22:03;16.90;95.50
35127;DHT22;21300;52.006;5.798;2023-08-06T03:24:29;16.90;95.50
35127;DHT22;21300;52.006;5.798;2023-08-06T03:26:54;16.90;95.50
35127;DHT22;21300;52.006;5.798;2023-08-06T03:29:20;16.80;95.50
35127;DHT22;21300;52.006;5.798;2023-08-06T03:31:47;16.80;95.50
35127;DHT22;21300;52.006;5.798;2023-08-06T03:34:12;16.80;95.60
35127;DHT22;21300;52.006;5.798;2023-08-06T03:36:38;16.80;95.50
35127;DHT22;21300;52.006;5.798;2023-08-06T03:39:03;16.80;95.60
35127;DHT22;21300;52.006;5.798;2023-08-06T03:41:29;16.80;95.60
35127;DHT22;21300;52.006;5.798;2023-08-06T03:43:54;16.80;95.60
35127;DHT22;21300;52.006;5.798;2023-08-06T03:46:20;16.80;95.60
35127;DHT22;21300;52.006;5.798;2023-08-06T03:48:45;16.80;95.60
35127;DHT22;21300;52.006;5.798;2023-08-06T03:51:11;16.80;95.60
35127;DHT22;21300;52.006;5.798;2023-08-06T03:53:37;16.80;95.60
35127;DHT22;21300;52.006;5.798;2023-08-06T03:56:02;16.80;95.60
35127;DHT22;21300;52.006;5.798;2023-08-06T03:58:28;16.80;95.70
35127;DHT22;21300;52.006;5.798;2023-08-06T04:01:01;16.80;95.60
35127;DHT22;21300;52.006;5.798;2023-08-06T04:03:26;16.80;95.60
35127;DHT22;21300;52.006;5.798;2023-08-06T04:05:52;16.80;95.60
35127;DHT22;21300;52.006;5.798;2023-08-06T04:08:18;16.80;95.60
35127;DHT22;21300;52.006;5.798;2023-08-06T04:10:43;16.80;95.50
35127;DHT22;21300;52.006;5.798;2023-08-06T04:13:09;16.80;95.60
35127;DHT22;21300;52.006;5.798;2023-08-06T04:15:34;16.80;95.60
35127;DHT22;21300;52.006;5.798;2023-08-06T04:18:00;16.80;95.50
35127;DHT22;21300;52.006;5.798;2023-08-06T04:20:25;16.80;95.60
35127;DHT22;21300;52.006;5.798;2023-08-06T04:22:53;16.80;95.50
35127;DHT22;21300;52.006;5.798;2023-08-06T04:25:19;16.70;95.50
35127;DHT22;21300;52.006;5.798;2023-08-06T04:27:47;16.70;95.50
35127;DHT22;21300;52.006;5.798;2023-08-06T04:30:12;16.70;95.60
35127;DHT22;21300;52.006;5.798;2023-08-06T04:32:39;16.70;95.60
35127;DHT22;21300;52.006;5.798;2023-08-06T04:35:05;16.70;95.60
35127;DHT22;21300;52.006;5.798;2023-08-06T04:37:31;16.70;95.60
35127;DHT22;21300;52.006;5.798;2023-08-06T04:39:56;16.70;95.60
35127;DHT22;21300;52.006;5.798;2023-08-06T04:42:22;16.80;95.60
35127;DHT22;21300;52.006;5.798;2023-08-06T04:44:47;16.70;95.60
35127;DHT22;21300;52.006;5.798;2023-08-06T04:47:13;16.70;95.60
35127;DHT22;21300;52.006;5.798;2023-08-06T04:49:38;16.70;95.60
35127;DHT22;21300;52.006;5.798;2023-08-06T04:52:04;16.70;95.60
35127;DHT22;21300;52.006;5.798;2023-08-06T04:54:30;16.70;95.60
35127;DHT22;21300;52.006;5.798;2023-08-06T04:56:56;16.70;95.60
35127;DHT22;21300;52.006;5.798;2023-08-06T04:59:21;16.70;95.60
35127;DHT22;21300;52.006;5.798;2023-08-06T05:01:47;16.70;95.60
35127;DHT22;21300;52.006;5.798;2023-08-06T05:04:12;16.70;95.60
35127;DHT22;21300;52.006;5.798;2023-08-06T05:06:38;16.70;95.60
35127;DHT22;21300;52.006;5.798;2023-08-06T05:09:04;16.70;95.60
35127;DHT22;21300;52.006;5.798;2023-08-06T05:11:30;16.70;95.60
35127;DHT22;21300;52.006;5.798;2023-08-06T05:13:55;16.70;95.60
35127;DHT22;21300;52.006;5.798;2023-08-06T05:16:21;16.70;95.60
35127;DHT22;21300;52.006;5.798;2023-08-06T05:18:47;16.70;95.60
35127;DHT22;21300;52.006;5.798;2023-08-06T05:21:12;16.70;95.60
35127;DHT22;21300;52.006;5.798;2023-08-06T05:23:38;16.70;95.60
35127;DHT22;21300;52.006;5.798;2023-08-06T05:26:03;16.70;95.60
35127;DHT22;21300;52.006;5.798;2023-08-06T05:28:29;16.60;95.90
35127;DHT22;21300;52.006;5.798;2023-08-06T05:30:54;16.60;96.10
35127;DHT22;21300;52.006;5.798;2023-08-06T05:33:20;16.60;96.20
35127;DHT22;21300;52.006;5.798;2023-08-06T05:35:45;16.60;96.40
35127;DHT22;21300;52.006;5.798;2023-08-06T05:38:11;16.60;96.60
35127;DHT22;21300;52.006;5.798;2023-08-06T05:40:36;16.60;96.70
35127;DHT22;21300;52.006;5.798;2023-08-06T05:43:02;16.60;96.80
35127;DHT22;21300;52.006;5.798;2023-08-06T05:45:28;16.50;96.90
35127;DHT22;21300;52.006;5.798;2023-08-06T05:47:53;16.60;97.00
35127;DHT22;21300;52.006;5.798;2023-08-06T05:50:23;16.50;96.90
35127;DHT22;21300;52.006;5.798;2023-08-06T05:52:48;16.50;97.00
35127;DHT22;21300;52.006;5.798;2023-08-06T05:55:14;16.50;97.30
35127;DHT22;21300;52.006;5.798;2023-08-06T05:57:39;16.50;97.30
35127;DHT22;21300;52.006;5.798;2023-08-06T06:00:05;16.50;97.40
35127;DHT22;21300;52.006;5.798;2023-08-06T06:02:32;16.40;97.30
35127;DHT22;21300;52.006;5.798;2023-08-06T06:04:57;16.50;97.50
35127;DHT22;21300;52.006;5.798;2023-08-06T06:07:23;16.50;97.40
35127;DHT22;21300;52.006;5.798;2023-08-06T06:09:48;16.50;97.50
35127;DHT22;21300;52.006;5.798;2023-08-06T06:12:14;16.50;97.70
35127;DHT22;21300;52.006;5.798;2023-08-06T06:14:39;16.50;97.60
35127;DHT22;21300;52.006;5.798;2023-08-06T06:17:05;16.50;97.60
35127;DHT22;21300;52.006;5.798;2023-08-06T06:19:30;16.50;97.80
35127;DHT22;21300;52.006;5.798;2023-08-06T06:21:56;16.50;97.90
35127;DHT22;21300;52.006;5.798;2023-08-06T06:24:23;16.50;97.90
35127;DHT22;21300;52.006;5.798;2023-08-06T06:26:48;16.50;97.90
35127;DHT22;21300;52.006;5.798;2023-08-06T06:29:14;16.50;98.00
35127;DHT22;21300;52.006;5.798;2023-08-06T06:31:39;16.50;97.90
35127;DHT22;21300;52.006;5.798;2023-08-06T06:34:05;16.50;97.90
35127;DHT22;21300;52.006;5.798;2023-08-06T06:36:30;16.50;98.00
35127;DHT22;21300;52.006;5.798;2023-08-06T06:38:56;16.50;98.00
35127;DHT22;21300;52.006;5.798;2023-08-06T06:41:21;16.50;97.90
35127;DHT22;21300;52.006;5.798;2023-08-06T06:43:47;16.50;98.20
35127;DHT22;21300;52.006;5.798;2023-08-06T06:46:13;16.50;98.30
35127;DHT22;21300;52.006;5.798;2023-08-06T06:48:38;16.50;98.20
35127;DHT22;21300;52.006;5.798;2023-08-06T06:51:04;16.50;98.70
35127;DHT22;21300;52.006;5.798;2023-08-06T06:53:29;16.50;98.30
35127;DHT22;21300;52.006;5.798;2023-08-06T06:56:05;16.50;98.40
35127;DHT22;21300;52.006;5.798;2023-08-06T06:58:31;16.50;98.10
35127;DHT22;21300;52.006;5.798;2023-08-06T07:00:56;16.50;98.40
35127;DHT22;21300;52.006;5.798;2023-08-06T07:03:22;16.50;98.30
35127;DHT22;21300;52.006;5.798;2023-08-06T07:05:49;16.50;98.20
35127;DHT22;21300;52.006;5.798;2023-08-06T07:08:15;16.50;98.20
35127;DHT22;21300;52.006;5.798;2023-08-06T07:10:41;16.50;98.20
35127;DHT22;21300;52.006;5.798;2023-08-06T07:13:09;16.50;98.50
35127;DHT22;21300;52.006;5.798;2023-08-06T07:15:35;16.50;98.10
35127;DHT22;21300;52.006;5.798;2023-08-06T07:18:01;16.50;98.10
35127;DHT22;21300;52.006;5.798;2023-08-06T07:20:26;16.50;98.10
35127;DHT22;21300;52.006;5.798;2023-08-06T07:22:54;16.60;98.30
35127;DHT22;21300;52.006;5.798;2023-08-06T07:25:20;16.60;98.30
35127;DHT22;21300;52.006;5.798;2023-08-06T07:27:45;16.50;98.50
35127;DHT22;21300;52.006;5.798;2023-08-06T07:30:11;16.50;98.30
35127;DHT22;21300;52.006;5.798;2023-08-06T07:32:36;16.60;98.30
35127;DHT22;21300;52.006;5.798;2023-08-06T07:35:02;16.60;98.20
35127;DHT22;21300;52.006;5.798;2023-08-06T07:37:28;16.60;98.00
35127;DHT22;21300;52.006;5.798;2023-08-06T07:39:54;16.60;98.00
35127;DHT22;21300;52.006;5.798;2023-08-06T07:42:20;16.60;98.00
35127;DHT22;21300;52.006;5.798;2023-08-06T07:44:56;16.70;98.00
35127;DHT22;21300;52.006;5.798;2023-08-06T07:47:22;16.60;97.90
35127;DHT22;21300;52.006;5.798;2023-08-06T07:49:48;16.70;97.80
35127;DHT22;21300;52.006;5.798;2023-08-06T07:52:13;16.70;97.70
35127;DHT22;21300;52.006;5.798;2023-08-06T07:54:39;16.70;97.70
35127;DHT22;21300;52.006;5.798;2023-08-06T07:57:05;16.70;97.70
35127;DHT22;21300;52.006;5.798;2023-08-06T07:59:30;16.70;97.60
35127;DHT22;21300;52.006;5.798;2023-08-06T08:01:56;16.70;98.00
35127;DHT22;21300;52.006;5.798;2023-08-06T08:04:22;16.70;97.60
35127;DHT22;21300;52.006;5.798;2023-08-06T08:06:47;16.80;97.50
35127;DHT22;21300;52.006;5.798;2023-08-06T08:09:13;16.80;97.90
35127;DHT22;21300;52.006;5.798;2023-08-06T08:11:40;16.80;97.50
35127;DHT22;21300;52.006;5.798;2023-08-06T08:14:06;16.80;97.40
35127;DHT22;21300;52.006;5.798;2023-08-06T08:19:16;16.80;97.40
35127;DHT22;21300;52.006;5.798;2023-08-06T08:21:41;16.90;97.30
35127;DHT22;21300;52.006;5.798;2023-08-06T08:24:07;16.90;97.30
35127;DHT22;21300;52.006;5.798;2023-08-06T08:26:33;16.90;97.30
35127;DHT22;21300;52.006;5.798;2023-08-06T08:28:59;16.90;97.30
35127;DHT22;21300;52.006;5.798;2023-08-06T08:31:24;16.90;97.20
35127;DHT22;21300;52.006;5.798;2023-08-06T08:33:50;16.90;97.10
35127;DHT22;21300;52.006;5.798;2023-08-06T08:36:15;17.00;97.20
35127;DHT22;21300;52.006;5.798;2023-08-06T08:38:41;17.00;97.10
35127;DHT22;21300;52.006;5.798;2023-08-06T08:41:09;17.00;97.00
35127;DHT22;21300;52.006;5.798;2023-08-06T08:43:35;17.00;97.00
35127;DHT22;21300;52.006;5.798;2023-08-06T08:48:46;17.10;97.00
35127;DHT22;21300;52.006;5.798;2023-08-06T08:51:13;17.10;97.00
35127;DHT22;21300;52.006;5.798;2023-08-06T08:53:39;17.10;96.90
35127;DHT22;21300;52.006;5.798;2023-08-06T08:56:05;17.20;96.90
35127;DHT22;21300;52.006;5.798;2023-08-06T08:58:32;17.20;97.00
35127;DHT22;21300;52.006;5.798;2023-08-06T09:00:58;17.20;97.00
35127;DHT22;21300;52.006;5.798;2023-08-06T09:03:23;17.20;96.80
35127;DHT22;21300;52.006;5.798;2023-08-06T09:05:53;17.30;96.80
35127;DHT22;21300;52.006;5.798;2023-08-06T09:08:24;17.30;96.80
35127;DHT22;21300;52.006;5.798;2023-08-06T09:10:53;17.30;96.70
35127;DHT22;21300;52.006;5.798;2023-08-06T09:13:20;17.40;96.80
35127;DHT22;21300;52.006;5.798;2023-08-06T09:15:46;17.40;96.70
35127;DHT22;21300;52.006;5.798;2023-08-06T09:18:12;17.40;96.70
35127;DHT22;21300;52.006;5.798;2023-08-06T09:20:41;17.40;96.60
35127;DHT22;21300;52.006;5.798;2023-08-06T09:23:10;17.40;96.60
35127;DHT22;21300;52.006;5.798;2023-08-06T09:25:39;17.50;96.60
35127;DHT22;21300;52.006;5.798;2023-08-06T09:28:08;17.50;96.60
35127;DHT22;21300;52.006;5.798;2023-08-06T09:30:35;17.50;96.50
35127;DHT22;21300;52.006;5.798;2023-08-06T09:33:01;17.50;96.50
35127;DHT22;21300;52.006;5.798;2023-08-06T09:35:31;17.50;96.50
35127;DHT22;21300;52.006;5.798;2023-08-06T09:38:09;17.60;96.50
35127;DHT22;21300;52.006;5.798;2023-08-06T09:40:36;17.60;96.40
35127;DHT22;21300;52.006;5.798;2023-08-06T09:43:02;17.60;96.40
35127;DHT22;21300;52.006;5.798;2023-08-06T09:45:37;17.60;96.70
35127;DHT22;21300;52.006;5.798;2023-08-06T09:48:05;17.70;96.40
35127;DHT22;21300;52.006;5.798;2023-08-06T09:50:32;17.70;96.30
35127;DHT22;21300;52.006;5.798;2023-08-06T09:52:59;17.70;96.30
35127;DHT22;21300;52.006;5.798;2023-08-06T09:55:25;17.70;96.30
35127;DHT22;21300;52.006;5.798;2023-08-06T09:57:52;17.70;96.30
35127;DHT22;21300;52.006;5.798;2023-08-06T10:00:18;17.70;96.20
35127;DHT22;21300;52.006;5.798;2023-08-06T10:02:43;17.80;96.20
35127;DHT22;21300;52.006;5.798;2023-08-06T10:05:10;17.80;96.20
35127;DHT22;21300;52.006;5.798;2023-08-06T10:07:36;17.80;96.20
35127;DHT22;21300;52.006;5.798;2023-08-06T10:10:04;17.80;96.10
35127;DHT22;21300;52.006;5.798;2023-08-06T10:12:40;17.80;96.10
35127;DHT22;21300;52.006;5.798;2023-08-06T10:15:12;17.80;96.10
35127;DHT22;21300;52.006;5.798;2023-08-06T10:17:38;17.80;96.00
35127;DHT22;21300;52.006;5.798;2023-08-06T10:20:05;17.80;96.20
35127;DHT22;21300;52.006;5.798;2023-08-06T10:22:33;17.80;96.30
35127;DHT22;21300;52.006;5.798;2023-08-06T10:24:59;17.80;96.60
35127;DHT22;21300;52.006;5.798;2023-08-06T10:27:39;17.80;96.10
35127;DHT22;21300;52.006;5.798;2023-08-06T10:30:30;17.80;96.10
35127;DHT22;21300;52.006;5.798;2023-08-06T10:33:01;17.80;96.10
35127;DHT22;21300;52.006;5.798;2023-08-06T10:35:37;17.80;96.00
35127;DHT22;21300;52.006;5.798;2023-08-06T10:38:14;17.80;96.00
35127;DHT22;21300;52.006;5.798;2023-08-06T10:40:42;17.80;96.00
35127;DHT22;21300;52.006;5.798;2023-08-06T10:43:08;17.80;96.00
35127;DHT22;21300;52.006;5.798;2023-08-06T10:45:50;17.80;95.90
35127;DHT22;21300;52.006;5.798;2023-08-06T10:48:38;17.60;96.20
35127;DHT22;21300;52.006;5.798;2023-08-06T10:51:11;17.70;96.40
35127;DHT22;21300;52.006;5.798;2023-08-06T10:53:58;17.70;96.30
35127;DHT22;21300;52.006;5.798;2023-08-06T10:56:25;17.70;96.20
35127;DHT22;21300;52.006;5.798;2023-08-06T11:01:57;17.70;96.10
35127;DHT22;21300;52.006;5.798;2023-08-06T11:04:23;17.70;96.10
35127;DHT22;21300;52.006;5.798;2023-08-06T11:06:52;17.70;96.10
35127;DHT22;21300;52.006;5.798;2023-08-06T11:09:18;17.70;96.10
35127;DHT22;21300;52.006;5.798;2023-08-06T11:11:44;17.70;96.10
35127;DHT22;21300;52.006;5.798;2023-08-06T11:14:15;17.70;96.10
35127;DHT22;21300;52.006;5.798;2023-08-06T11:16:40;17.70;96.10
35127;DHT22;21300;52.006;5.798;2023-08-06T11:19:07;17.70;96.10
35127;DHT22;21300;52.006;5.798;2023-08-06T11:21:33;17.70;96.10
35127;DHT22;21300;52.006;5.798;2023-08-06T11:23:59;17.70;96.10
35127;DHT22;21300;52.006;5.798;2023-08-06T11:26:25;17.70;96.10
35127;DHT22;21300;52.006;5.798;2023-08-06T11:28:51;17.60;96.10
35127;DHT22;21300;52.006;5.798;2023-08-06T11:31:20;17.60;96.10
35127;DHT22;21300;52.006;5.798;2023-08-06T11:33:46;17.60;96.10
35127;DHT22;21300;52.006;5.798;2023-08-06T11:36:11;17.60;96.10
35127;DHT22;21300;52.006;5.798;2023-08-06T11:38:37;17.60;96.10
35127;DHT22;21300;52.006;5.798;2023-08-06T11:41:03;17.60;96.10
35127;DHT22;21300;52.006;5.798;2023-08-06T11:43:30;17.60;96.10
35127;DHT22;21300;52.006;5.798;2023-08-06T11:45:56;17.50;96.00
35127;DHT22;21300;52.006;5.798;2023-08-06T11:48:22;17.60;96.10
35127;DHT22;21300;52.006;5.798;2023-08-06T11:50:47;17.50;96.00
35127;DHT22;21300;52.006;5.798;2023-08-06T11:53:14;17.50;96.00
35127;DHT22;21300;52.006;5.798;2023-08-06T11:55:40;17.50;96.10
35127;DHT22;21300;52.006;5.798;2023-08-06T11:58:06;17.50;96.00
35127;DHT22;21300;52.006;5.798;2023-08-06T12:00:31;17.50;96.10
35127;DHT22;21300;52.006;5.798;2023-08-06T12:02:57;17.50;96.10
35127;DHT22;21300;52.006;5.798;2023-08-06T12:05:29;17.50;96.10
35127;DHT22;21300;52.006;5.798;2023-08-06T12:07:59;17.50;96.10
35127;DHT22;21300;52.006;5.798;2023-08-06T12:10:26;17.50;96.10
35127;DHT22;21300;52.006;5.798;2023-08-06T12:12:53;17.50;96.10
35127;DHT22;21300;52.006;5.798;2023-08-06T12:15:19;17.40;96.20
35127;DHT22;21300;52.006;5.798;2023-08-06T12:17:45;17.40;96.10
35127;DHT22;21300;52.006;5.798;2023-08-06T12:20:11;17.40;96.10
35127;DHT22;21300;52.006;5.798;2023-08-06T12:22:37;17.40;96.10
35127;DHT22;21300;52.006;5.798;2023-08-06T12:25:05;17.40;96.10
35127;DHT22;21300;52.006;5.798;2023-08-06T12:27:36;17.40;96.20
35127;DHT22;21300;52.006;5.798;2023-08-06T12:30:02;17.30;96.10
35127;DHT22;21300;52.006;5.798;2023-08-06T12:32:29;17.30;96.10
35127;DHT22;21300;52.006;5.798;2023-08-06T12:34:54;17.30;96.10
35127;DHT22;21300;52.006;5.798;2023-08-06T12:37:20;17.30;96.20
35127;DHT22;21300;52.006;5.798;2023-08-06T12:39:45;17.30;96.20
35127;DHT22;21300;52.006;5.798;2023-08-06T12:42:11;17.30;96.20
35127;DHT22;21300;52.006;5.798;2023-08-06T12:44:37;17.30;96.20
35127;DHT22;21300;52.006;5.798;2023-08-06T12:47:02;17.30;96.20
35127;DHT22;21300;52.006;5.798;2023-08-06T12:49:28;17.20;96.20
35127;DHT22;21300;52.006;5.798;2023-08-06T12:51:54;17.20;96.20
35127;DHT22;21300;52.006;5.798;2023-08-06T12:54:22;17.20;96.20
35127;DHT22;21300;52.006;5.798;2023-08-06T12:56:48;17.20;96.20
35127;DHT22;21300;52.006;5.798;2023-08-06T12:59:15;17.20;96.20
35127;DHT22;21300;52.006;5.798;2023-08-06T13:01:41;17.20;96.30
35127;DHT22;21300;52.006;5.798;2023-08-06T13:04:07;17.20;96.30
35127;DHT22;21300;52.006;5.798;2023-08-06T13:06:33;17.10;96.20
35127;DHT22;21300;52.006;5.798;2023-08-06T13:09:06;17.10;96.20
35127;DHT22;21300;52.006;5.798;2023-08-06T13:11:32;17.10;96.30
35127;DHT22;21300;52.006;5.798;2023-08-06T13:14:24;17.10;96.30
35127;DHT22;21300;52.006;5.798;2023-08-06T13:16:50;17.10;96.30
35127;DHT22;21300;52.006;5.798;2023-08-06T13:19:15;17.10;96.30
35127;DHT22;21300;52.006;5.798;2023-08-06T13:24:07;17.10;96.30
35127;DHT22;21300;52.006;5.798;2023-08-06T13:26:32;17.00;96.40
35127;DHT22;21300;52.006;5.798;2023-08-06T13:28:59;17.00;96.40
35127;DHT22;21300;52.006;5.798;2023-08-06T13:31:25;17.00;96.40
35127;DHT22;21300;52.006;5.798;2023-08-06T13:33:51;17.00;96.80
35127;DHT22;21300;52.006;5.798;2023-08-06T13:36:17;17.00;96.50
35127;DHT22;21300;52.006;5.798;2023-08-06T13:38:43;17.00;96.50
35127;DHT22;21300;52.006;5.798;2023-08-06T13:41:08;16.90;96.50
35127;DHT22;21300;52.006;5.798;2023-08-06T13:43:34;16.90;96.50
35127;DHT22;21300;52.006;5.798;2023-08-06T13:45:59;16.90;96.50
35127;DHT22;21300;52.006;5.798;2023-08-06T13:48:25;16.90;96.50
35127;DHT22;21300;52.006;5.798;2023-08-06T13:50:50;16.90;96.60
35127;DHT22;21300;52.006;5.798;2023-08-06T13:53:16;16.90;96.50
35127;DHT22;21300;52.006;5.798;2023-08-06T13:55:42;16.90;96.60
35127;DHT22;21300;52.006;5.798;2023-08-06T13:58:07;16.90;96.60
35127;DHT22;21300;52.006;5.798;2023-08-06T14:00:35;16.90;96.60
35127;DHT22;21300;52.006;5.798;2023-08-06T14:05:45;16.90;96.60
35127;DHT22;21300;52.006;5.798;2023-08-06T14:08:10;16.80;96.60
35127;DHT22;21300;52.006;5.798;2023-08-06T14:10:36;16.80;96.60
35127;DHT22;21300;52.006;5.798;2023-08-06T14:13:02;16.80;96.60
35127;DHT22;21300;52.006;5.798;2023-08-06T14:15:27;16.80;96.60
35127;DHT22;21300;52.006;5.798;2023-08-06T14:17:53;16.80;96.70
35127;DHT22;21300;52.006;5.798;2023-08-06T14:20:18;16.80;96.70
35127;DHT22;21300;52.006;5.798;2023-08-06T14:22:44;16.80;96.80
35127;DHT22;21300;52.006;5.798;2023-08-06T14:25:09;16.80;96.80
35127;DHT22;21300;52.006;5.798;2023-08-06T14:27:35;16.80;96.80
35127;DHT22;21300;52.006;5.798;2023-08-06T14:30:01;16.80;96.80
35127;DHT22;21300;52.006;5.798;2023-08-06T14:32:28;16.80;96.80
35127;DHT22;21300;52.006;5.798;2023-08-06T14:34:54;16.80;96.80
35127;DHT22;21300;52.006;5.798;2023-08-06T14:37:19;16.80;97.60
35127;DHT22;21300;52.006;5.798;2023-08-06T14:39:45;16.70;97.40
35127;DHT22;21300;52.006;5.798;2023-08-06T14:42:10;16.70;97.40
35127;DHT22;21300;52.006;5.798;2023-08-06T14:44:36;16.70;97.50
35127;DHT22;21300;52.006;5.798;2023-08-06T14:47:02;16.70;97.60
35127;DHT22;21300;52.006;5.798;2023-08-06T14:49:27;16.70;97.50
35127;DHT22;21300;52.006;5.798;2023-08-06T14:51:53;16.70;97.50
35127;DHT22;21300;52.006;5.798;2023-08-06T14:54:18;16.70;97.40
35127;DHT22;21300;52.006;5.798;2023-08-06T14:56:44;16.70;97.50
35127;DHT22;21300;52.006;5.798;2023-08-06T14:59:09;16.70;97.50
35127;DHT22;21300;52.006;5.798;2023-08-06T15:01:35;16.70;97.50
35127;DHT22;21300;52.006;5.798;2023-08-06T15:04:01;16.70;97.60
35127;DHT22;21300;52.006;5.798;2023-08-06T15:06:26;16.70;97.60
35127;DHT22;21300;52.006;5.798;2023-08-06T15:08:52;16.70;97.70
35127;DHT22;21300;52.006;5.798;2023-08-06T15:11:17;16.70;97.80
35127;DHT22;21300;52.006;5.798;2023-08-06T15:13:43;16.70;97.80
35127;DHT22;21300;52.006;5.798;2023-08-06T15:16:08;16.70;97.80
35127;DHT22;21300;52.006;5.798;2023-08-06T15:18:34;16.70;97.80
35127;DHT22;21300;52.006;5.798;2023-08-06T15:21:00;16.70;97.80
35127;DHT22;21300;52.006;5.798;2023-08-06T15:23:26;16.70;97.80
35127;DHT22;21300;52.006;5.798;2023-08-06T15:25:51;16.70;97.80
35127;DHT22;21300;52.006;5.798;2023-08-06T15:28:17;16.70;97.80
35127;DHT22;21300;52.006;5.798;2023-08-06T15:30:49;16.70;98.00
35127;DHT22;21300;52.006;5.798;2023-08-06T15:33:15;16.70;97.80
35127;DHT22;21300;52.006;5.798;2023-08-06T15:35:40;16.70;97.80
35127;DHT22;21300;52.006;5.798;2023-08-06T15:38:06;16.70;97.80
35127;DHT22;21300;52.006;5.798;2023-08-06T15:40:31;16.70;97.80
35127;DHT22;21300;52.006;5.798;2023-08-06T15:42:57;16.70;97.90